sensor_id;sensor_type;location;lat;lon;timestamp;P1;durP1;ratioP1;P2;durP2;ratioP2
30020;SDS011;16861;52.294;7.760;2023-11-21T00:02:17;106.13;;;16.45;;
30020;SDS011;16861;52.294;7.760;2023-11-21T00:04:44;124.00;;;16.05;;
30020;SDS011;16861;52.294;7.760;2023-11-21T00:07:10;76.50;;;14.73;;
30020;SDS011;16861;52.294;7.760;2023-11-21T00:09:37;135.45;;;15.30;;
30020;SDS011;16861;52.294;7.760;2023-11-21T00:12:03;114.75;;;16.40;;
30020;SDS011;16861;52.294;7.760;2023-11-21T00:14:30;84.25;;;15.85;;
30020;SDS011;16861;52.294;7.760;2023-11-21T00:16:57;124.20;;;17.42;;
30020;SDS011;16861;52.294;7.760;2023-11-21T00:19:25;61.08;;;15.60;;
30020;SDS011;16861;52.294;7.760;2023-11-21T00:21:52;98.88;;;17.38;;
30020;SDS011;16861;52.294;7.760;2023-11-21T00:24:18;111.55;;;17.77;;
30020;SDS011;16861;52.294;7.760;2023-11-21T00:26:45;114.22;;;18.02;;
30020;SDS011;16861;52.294;7.760;2023-11-21T00:29:12;89.50;;;17.35;;
30020;SDS011;16861;52.294;7.760;2023-11-21T00:31:38;112.88;;;18.52;;
30020;SDS011;16861;52.294;7.760;2023-11-21T00:34:05;121.57;;;20.15;;
30020;SDS011;16861;52.294;7.760;2023-11-21T00:36:31;106.93;;;19.23;;
30020;SDS011;16861;52.294;7.760;2023-11-21T00:38:58;95.63;;;18.13;;
30020;SDS011;16861;52.294;7.760;2023-11-21T00:41:25;91.35;;;17.88;;
30020;SDS011;16861;52.294;7.760;2023-11-21T00:43:54;76.10;;;15.52;;
30020;SDS011;16861;52.294;7.760;2023-11-21T00:46:21;138.95;;;18.15;;
30020;SDS011;16861;52.294;7.760;2023-11-21T00:48:48;70.93;;;15.60;;
30020;SDS011;16861;52.294;7.760;2023-11-21T00:51:14;74.93;;;15.05;;
30020;SDS011;16861;52.294;7.760;2023-11-21T00:53:41;94.70;;;15.70;;
30020;SDS011;16861;52.294;7.760;2023-11-21T00:56:07;51.97;;;13.50;;
30020;SDS011;16861;52.294;7.760;2023-11-21T00:58:34;56.53;;;15.07;;
30020;SDS011;16861;52.294;7.760;2023-11-21T01:01:01;141.38;;;18.35;;
30020;SDS011;16861;52.294;7.760;2023-11-21T01:03:29;69.63;;;14.07;;
30020;SDS011;16861;52.294;7.760;2023-11-21T01:05:56;92.40;;;14.82;;
30020;SDS011;16861;52.294;7.760;2023-11-21T01:08:23;63.90;;;14.70;;
30020;SDS011;16861;52.294;7.760;2023-11-21T01:10:50;80.20;;;14.55;;
30020;SDS011;16861;52.294;7.760;2023-11-21T01:13:17;51.53;;;13.32;;
30020;SDS011;16861;52.294;7.760;2023-11-21T01:15:44;91.88;;;15.68;;
30020;SDS011;16861;52.294;7.760;2023-11-21T01:18:11;86.15;;;13.63;;
30020;SDS011;16861;52.294;7.760;2023-11-21T01:20:38;183.65;;;17.40;;
30020;SDS011;16861;52.294;7.760;2023-11-21T01:23:04;96.55;;;14.77;;
30020;SDS011;16861;52.294;7.760;2023-11-21T01:25:31;154.82;;;15.35;;
30020;SDS011;16861;52.294;7.760;2023-11-21T01:27:57;81.03;;;14.32;;
30020;SDS011;16861;52.294;7.760;2023-11-21T01:30:24;141.27;;;15.85;;
30020;SDS011;16861;52.294;7.760;2023-11-21T01:32:51;184.75;;;18.10;;
30020;SDS011;16861;52.294;7.760;2023-11-21T01:35:18;176.05;;;18.85;;
30020;SDS011;16861;52.294;7.760;2023-11-21T01:37:45;278.60;;;18.73;;
30020;SDS011;16861;52.294;7.760;2023-11-21T01:40:12;196.48;;;17.35;;
30020;SDS011;16861;52.294;7.760;2023-11-21T01:42:41;215.75;;;16.48;;
30020;SDS011;16861;52.294;7.760;2023-11-21T01:45:10;115.50;;;14.30;;
30020;SDS011;16861;52.294;7.760;2023-11-21T01:47:39;148.68;;;14.90;;
30020;SDS011;16861;52.294;7.760;2023-11-21T01:50:08;154.30;;;14.48;;
30020;SDS011;16861;52.294;7.760;2023-11-21T01:52:38;106.40;;;14.52;;
30020;SDS011;16861;52.294;7.760;2023-11-21T01:55:06;115.30;;;13.88;;
30020;SDS011;16861;52.294;7.760;2023-11-21T01:57:35;133.00;;;14.18;;
30020;SDS011;16861;52.294;7.760;2023-11-21T02:00:05;71.00;;;13.43;;
30020;SDS011;16861;52.294;7.760;2023-11-21T02:02:45;60.42;;;12.63;;
30020;SDS011;16861;52.294;7.760;2023-11-21T02:05:16;153.25;;;16.13;;
30020;SDS011;16861;52.294;7.760;2023-11-21T02:07:44;84.35;;;13.50;;
30020;SDS011;16861;52.294;7.760;2023-11-21T02:10:14;78.78;;;12.48;;
30020;SDS011;16861;52.294;7.760;2023-11-21T02:12:42;62.90;;;13.15;;
30020;SDS011;16861;52.294;7.760;2023-11-21T02:15:10;86.85;;;14.05;;
30020;SDS011;16861;52.294;7.760;2023-11-21T02:17:41;105.85;;;13.15;;
30020;SDS011;16861;52.294;7.760;2023-11-21T02:20:13;87.78;;;12.93;;
30020;SDS011;16861;52.294;7.760;2023-11-21T02:22:51;161.05;;;14.63;;
30020;SDS011;16861;52.294;7.760;2023-11-21T02:25:26;128.20;;;15.07;;
30020;SDS011;16861;52.294;7.760;2023-11-21T02:27:57;74.32;;;12.68;;
30020;SDS011;16861;52.294;7.760;2023-11-21T02:30:25;55.08;;;12.90;;
30020;SDS011;16861;52.294;7.760;2023-11-21T02:32:54;89.55;;;13.50;;
30020;SDS011;16861;52.294;7.760;2023-11-21T02:35:21;108.97;;;14.82;;
30020;SDS011;16861;52.294;7.760;2023-11-21T02:37:48;114.80;;;13.85;;
30020;SDS011;16861;52.294;7.760;2023-11-21T02:40:15;75.97;;;14.90;;
30020;SDS011;16861;52.294;7.760;2023-11-21T02:42:47;78.75;;;13.32;;
30020;SDS011;16861;52.294;7.760;2023-11-21T02:45:14;59.33;;;12.73;;
30020;SDS011;16861;52.294;7.760;2023-11-21T02:47:43;118.32;;;14.18;;
30020;SDS011;16861;52.294;7.760;2023-11-21T02:50:11;69.95;;;12.95;;
30020;SDS011;16861;52.294;7.760;2023-11-21T02:52:38;65.50;;;13.38;;
30020;SDS011;16861;52.294;7.760;2023-11-21T02:55:06;102.35;;;14.02;;
30020;SDS011;16861;52.294;7.760;2023-11-21T02:57:36;99.18;;;13.48;;
30020;SDS011;16861;52.294;7.760;2023-11-21T03:00:02;91.88;;;13.02;;
30020;SDS011;16861;52.294;7.760;2023-11-21T03:02:29;76.35;;;12.65;;
30020;SDS011;16861;52.294;7.760;2023-11-21T03:04:56;103.45;;;16.00;;
30020;SDS011;16861;52.294;7.760;2023-11-21T03:07:23;109.35;;;14.18;;
30020;SDS011;16861;52.294;7.760;2023-11-21T03:09:49;75.97;;;13.50;;
30020;SDS011;16861;52.294;7.760;2023-11-21T03:12:16;73.10;;;13.82;;
30020;SDS011;16861;52.294;7.760;2023-11-21T03:14:43;114.65;;;13.50;;
30020;SDS011;16861;52.294;7.760;2023-11-21T03:17:09;118.38;;;14.75;;
30020;SDS011;16861;52.294;7.760;2023-11-21T03:19:36;112.18;;;14.80;;
30020;SDS011;16861;52.294;7.760;2023-11-21T03:22:03;82.78;;;12.60;;
30020;SDS011;16861;52.294;7.760;2023-11-21T03:24:30;73.00;;;12.40;;
30020;SDS011;16861;52.294;7.760;2023-11-21T03:26:57;103.47;;;13.82;;
30020;SDS011;16861;52.294;7.760;2023-11-21T03:29:23;111.80;;;13.73;;
30020;SDS011;16861;52.294;7.760;2023-11-21T03:31:50;93.45;;;13.20;;
30020;SDS011;16861;52.294;7.760;2023-11-21T03:34:27;147.55;;;13.90;;
30020;SDS011;16861;52.294;7.760;2023-11-21T03:36:54;75.20;;;12.70;;
30020;SDS011;16861;52.294;7.760;2023-11-21T03:39:21;129.35;;;13.52;;
30020;SDS011;16861;52.294;7.760;2023-11-21T03:41:48;112.03;;;14.00;;
30020;SDS011;16861;52.294;7.760;2023-11-21T03:44:15;95.35;;;16.67;;
30020;SDS011;16861;52.294;7.760;2023-11-21T03:46:41;150.73;;;16.65;;
30020;SDS011;16861;52.294;7.760;2023-11-21T03:49:08;116.25;;;14.48;;
30020;SDS011;16861;52.294;7.760;2023-11-21T03:51:35;90.97;;;13.35;;
30020;SDS011;16861;52.294;7.760;2023-11-21T03:54:01;98.03;;;13.85;;
30020;SDS011;16861;52.294;7.760;2023-11-21T03:56:28;82.90;;;12.07;;
30020;SDS011;16861;52.294;7.760;2023-11-21T03:58:54;63.13;;;12.00;;
30020;SDS011;16861;52.294;7.760;2023-11-21T04:01:21;81.20;;;12.15;;
30020;SDS011;16861;52.294;7.760;2023-11-21T04:03:49;68.55;;;12.27;;
30020;SDS011;16861;52.294;7.760;2023-11-21T04:06:17;103.97;;;12.98;;
30020;SDS011;16861;52.294;7.760;2023-11-21T04:08:44;69.93;;;13.65;;
30020;SDS011;16861;52.294;7.760;2023-11-21T04:11:12;112.97;;;14.48;;
30020;SDS011;16861;52.294;7.760;2023-11-21T04:13:39;69.35;;;11.88;;
30020;SDS011;16861;52.294;7.760;2023-11-21T04:16:07;41.70;;;11.75;;
30020;SDS011;16861;52.294;7.760;2023-11-21T04:18:37;81.55;;;13.50;;
30020;SDS011;16861;52.294;7.760;2023-11-21T04:21:05;88.53;;;13.30;;
30020;SDS011;16861;52.294;7.760;2023-11-21T04:23:32;53.10;;;12.73;;
30020;SDS011;16861;52.294;7.760;2023-11-21T04:25:59;90.35;;;13.48;;
30020;SDS011;16861;52.294;7.760;2023-11-21T04:28:26;78.70;;;14.27;;
30020;SDS011;16861;52.294;7.760;2023-11-21T04:30:52;116.82;;;14.80;;
30020;SDS011;16861;52.294;7.760;2023-11-21T04:33:19;129.10;;;15.93;;
30020;SDS011;16861;52.294;7.760;2023-11-21T04:35:47;92.80;;;14.77;;
30020;SDS011;16861;52.294;7.760;2023-11-21T04:38:14;81.80;;;13.05;;
30020;SDS011;16861;52.294;7.760;2023-11-21T04:40:41;104.65;;;12.30;;
30020;SDS011;16861;52.294;7.760;2023-11-21T04:43:07;69.40;;;12.35;;
30020;SDS011;16861;52.294;7.760;2023-11-21T04:45:34;30.23;;;9.70;;
30020;SDS011;16861;52.294;7.760;2023-11-21T04:48:01;56.60;;;11.52;;
30020;SDS011;16861;52.294;7.760;2023-11-21T04:50:28;55.72;;;12.50;;
30020;SDS011;16861;52.294;7.760;2023-11-21T04:52:54;45.60;;;11.55;;
30020;SDS011;16861;52.294;7.760;2023-11-21T04:55:21;67.85;;;11.85;;
30020;SDS011;16861;52.294;7.760;2023-11-21T04:57:47;55.78;;;11.75;;
30020;SDS011;16861;52.294;7.760;2023-11-21T05:00:14;43.15;;;11.85;;
30020;SDS011;16861;52.294;7.760;2023-11-21T05:02:42;49.50;;;11.50;;
30020;SDS011;16861;52.294;7.760;2023-11-21T05:05:10;58.85;;;11.48;;
30020;SDS011;16861;52.294;7.760;2023-11-21T05:07:37;48.42;;;10.60;;
30020;SDS011;16861;52.294;7.760;2023-11-21T05:10:05;61.42;;;11.30;;
30020;SDS011;16861;52.294;7.760;2023-11-21T05:12:37;91.32;;;13.63;;
30020;SDS011;16861;52.294;7.760;2023-11-21T05:15:04;53.50;;;10.55;;
30020;SDS011;16861;52.294;7.760;2023-11-21T05:17:38;38.85;;;10.93;;
30020;SDS011;16861;52.294;7.760;2023-11-21T05:20:13;109.00;;;11.25;;
30020;SDS011;16861;52.294;7.760;2023-11-21T05:22:40;41.92;;;10.68;;
30020;SDS011;16861;52.294;7.760;2023-11-21T05:25:08;36.20;;;10.13;;
30020;SDS011;16861;52.294;7.760;2023-11-21T05:27:35;63.13;;;10.40;;
30020;SDS011;16861;52.294;7.760;2023-11-21T05:30:02;58.63;;;11.43;;
30020;SDS011;16861;52.294;7.760;2023-11-21T05:32:33;70.13;;;11.45;;
30020;SDS011;16861;52.294;7.760;2023-11-21T05:35:00;37.50;;;10.07;;
30020;SDS011;16861;52.294;7.760;2023-11-21T05:37:27;54.42;;;11.73;;
30020;SDS011;16861;52.294;7.760;2023-11-21T05:39:54;85.65;;;12.18;;
30020;SDS011;16861;52.294;7.760;2023-11-21T05:42:23;56.75;;;12.02;;
30020;SDS011;16861;52.294;7.760;2023-11-21T05:44:49;59.15;;;12.32;;
30020;SDS011;16861;52.294;7.760;2023-11-21T05:47:16;42.63;;;10.35;;
30020;SDS011;16861;52.294;7.760;2023-11-21T05:49:44;24.60;;;9.95;;
30020;SDS011;16861;52.294;7.760;2023-11-21T05:52:12;30.65;;;8.77;;
30020;SDS011;16861;52.294;7.760;2023-11-21T05:54:39;39.30;;;10.75;;
30020;SDS011;16861;52.294;7.760;2023-11-21T05:57:05;51.63;;;12.00;;
30020;SDS011;16861;52.294;7.760;2023-11-21T05:59:32;26.95;;;10.05;;
30020;SDS011;16861;52.294;7.760;2023-11-21T06:01:58;66.32;;;11.85;;
30020;SDS011;16861;52.294;7.760;2023-11-21T06:04:25;43.60;;;10.75;;
30020;SDS011;16861;52.294;7.760;2023-11-21T06:06:52;64.85;;;11.85;;
30020;SDS011;16861;52.294;7.760;2023-11-21T06:09:19;38.20;;;11.25;;
30020;SDS011;16861;52.294;7.760;2023-11-21T06:11:46;39.88;;;10.68;;
30020;SDS011;16861;52.294;7.760;2023-11-21T06:14:13;50.72;;;11.88;;
30020;SDS011;16861;52.294;7.760;2023-11-21T06:16:41;59.67;;;12.30;;
30020;SDS011;16861;52.294;7.760;2023-11-21T06:19:07;97.05;;;13.98;;
30020;SDS011;16861;52.294;7.760;2023-11-21T06:21:34;68.93;;;12.68;;
30020;SDS011;16861;52.294;7.760;2023-11-21T06:24:01;66.38;;;12.93;;
30020;SDS011;16861;52.294;7.760;2023-11-21T06:26:28;85.07;;;12.70;;
30020;SDS011;16861;52.294;7.760;2023-11-21T06:28:54;77.93;;;13.77;;
30020;SDS011;16861;52.294;7.760;2023-11-21T06:31:22;42.05;;;12.90;;
30020;SDS011;16861;52.294;7.760;2023-11-21T06:33:49;66.00;;;13.50;;
30020;SDS011;16861;52.294;7.760;2023-11-21T06:36:18;65.43;;;13.43;;
30020;SDS011;16861;52.294;7.760;2023-11-21T06:38:44;43.38;;;12.30;;
30020;SDS011;16861;52.294;7.760;2023-11-21T06:41:12;48.92;;;12.60;;
30020;SDS011;16861;52.294;7.760;2023-11-21T06:43:41;54.55;;;12.23;;
30020;SDS011;16861;52.294;7.760;2023-11-21T06:46:12;38.38;;;11.82;;
30020;SDS011;16861;52.294;7.760;2023-11-21T06:48:42;43.30;;;10.68;;
30020;SDS011;16861;52.294;7.760;2023-11-21T06:51:09;37.80;;;10.10;;
30020;SDS011;16861;52.294;7.760;2023-11-21T06:53:36;24.02;;;10.57;;
30020;SDS011;16861;52.294;7.760;2023-11-21T06:56:04;35.00;;;10.88;;
30020;SDS011;16861;52.294;7.760;2023-11-21T06:58:41;26.88;;;11.20;;
30020;SDS011;16861;52.294;7.760;2023-11-21T07:01:08;24.65;;;10.45;;
30020;SDS011;16861;52.294;7.760;2023-11-21T07:03:34;43.67;;;10.73;;
30020;SDS011;16861;52.294;7.760;2023-11-21T07:06:05;17.90;;;10.30;;
30020;SDS011;16861;52.294;7.760;2023-11-21T07:08:32;32.58;;;9.80;;
30020;SDS011;16861;52.294;7.760;2023-11-21T07:10:58;15.40;;;9.50;;
30020;SDS011;16861;52.294;7.760;2023-11-21T07:13:25;11.05;;;8.23;;
30020;SDS011;16861;52.294;7.760;2023-11-21T07:15:52;13.00;;;8.30;;
30020;SDS011;16861;52.294;7.760;2023-11-21T07:18:18;11.10;;;7.18;;
30020;SDS011;16861;52.294;7.760;2023-11-21T07:20:45;13.73;;;8.10;;
30020;SDS011;16861;52.294;7.760;2023-11-21T07:23:12;20.75;;;8.60;;
30020;SDS011;16861;52.294;7.760;2023-11-21T07:25:41;11.73;;;8.30;;
30020;SDS011;16861;52.294;7.760;2023-11-21T07:28:09;11.57;;;7.70;;
30020;SDS011;16861;52.294;7.760;2023-11-21T07:30:36;9.07;;;5.75;;
30020;SDS011;16861;52.294;7.760;2023-11-21T07:33:04;8.20;;;5.85;;
30020;SDS011;16861;52.294;7.760;2023-11-21T07:35:30;7.03;;;5.30;;
30020;SDS011;16861;52.294;7.760;2023-11-21T07:37:57;7.13;;;5.18;;
30020;SDS011;16861;52.294;7.760;2023-11-21T07:40:23;7.63;;;4.85;;
30020;SDS011;16861;52.294;7.760;2023-11-21T07:42:50;6.88;;;5.03;;
30020;SDS011;16861;52.294;7.760;2023-11-21T07:45:17;8.48;;;5.07;;
30020;SDS011;16861;52.294;7.760;2023-11-21T07:47:43;5.90;;;4.47;;
30020;SDS011;16861;52.294;7.760;2023-11-21T07:50:10;5.80;;;4.57;;
30020;SDS011;16861;52.294;7.760;2023-11-21T07:52:37;6.07;;;4.75;;
30020;SDS011;16861;52.294;7.760;2023-11-21T07:55:04;7.90;;;4.93;;
30020;SDS011;16861;52.294;7.760;2023-11-21T07:57:30;6.95;;;4.78;;
30020;SDS011;16861;52.294;7.760;2023-11-21T07:59:57;7.85;;;5.22;;
30020;SDS011;16861;52.294;7.760;2023-11-21T08:02:25;8.23;;;5.72;;
30020;SDS011;16861;52.294;7.760;2023-11-21T08:04:52;10.95;;;7.22;;
30020;SDS011;16861;52.294;7.760;2023-11-21T08:07:19;9.63;;;6.80;;
30020;SDS011;16861;52.294;7.760;2023-11-21T08:09:46;10.73;;;7.32;;
30020;SDS011;16861;52.294;7.760;2023-11-21T08:12:19;14.05;;;8.02;;
30020;SDS011;16861;52.294;7.760;2023-11-21T08:14:46;15.30;;;8.27;;
30020;SDS011;16861;52.294;7.760;2023-11-21T08:17:12;15.77;;;8.13;;
30020;SDS011;16861;52.294;7.760;2023-11-21T08:19:42;11.70;;;7.72;;
30020;SDS011;16861;52.294;7.760;2023-11-21T08:22:08;12.85;;;8.82;;
30020;SDS011;16861;52.294;7.760;2023-11-21T08:24:41;12.82;;;8.70;;
30020;SDS011;16861;52.294;7.760;2023-11-21T08:27:26;17.92;;;9.65;;
30020;SDS011;16861;52.294;7.760;2023-11-21T08:30:00;14.55;;;8.98;;
30020;SDS011;16861;52.294;7.760;2023-11-21T08:32:34;28.80;;;9.40;;
30020;SDS011;16861;52.294;7.760;2023-11-21T08:35:03;32.60;;;10.10;;
30020;SDS011;16861;52.294;7.760;2023-11-21T08:37:30;31.70;;;12.10;;
30020;SDS011;16861;52.294;7.760;2023-11-21T08:39:59;74.10;;;13.07;;
30020;SDS011;16861;52.294;7.760;2023-11-21T08:42:29;22.10;;;13.13;;
30020;SDS011;16861;52.294;7.760;2023-11-21T08:45:05;34.03;;;13.52;;
30020;SDS011;16861;52.294;7.760;2023-11-21T08:47:41;86.93;;;14.90;;
30020;SDS011;16861;52.294;7.760;2023-11-21T08:50:21;78.25;;;16.60;;
30020;SDS011;16861;52.294;7.760;2023-11-21T08:52:52;37.25;;;15.38;;
30020;SDS011;16861;52.294;7.760;2023-11-21T08:55:18;39.28;;;15.10;;
30020;SDS011;16861;52.294;7.760;2023-11-21T08:57:46;96.55;;;16.25;;
30020;SDS011;16861;52.294;7.760;2023-11-21T09:00:15;186.73;;;18.90;;
30020;SDS011;16861;52.294;7.760;2023-11-21T09:02:44;32.38;;;15.05;;
30020;SDS011;16861;52.294;7.760;2023-11-21T09:05:11;111.85;;;16.00;;
30020;SDS011;16861;52.294;7.760;2023-11-21T09:07:42;53.20;;;12.27;;
30020;SDS011;16861;52.294;7.760;2023-11-21T09:10:09;229.00;;;16.10;;
30020;SDS011;16861;52.294;7.760;2023-11-21T09:12:36;170.60;;;12.82;;
30020;SDS011;16861;52.294;7.760;2023-11-21T09:15:06;92.00;;;11.32;;
30020;SDS011;16861;52.294;7.760;2023-11-21T09:17:36;123.22;;;13.07;;
30020;SDS011;16861;52.294;7.760;2023-11-21T09:20:03;124.55;;;12.60;;
30020;SDS011;16861;52.294;7.760;2023-11-21T09:22:32;99.18;;;11.45;;
30020;SDS011;16861;52.294;7.760;2023-11-21T09:25:00;127.18;;;12.43;;
30020;SDS011;16861;52.294;7.760;2023-11-21T09:27:27;137.13;;;12.25;;
30020;SDS011;16861;52.294;7.760;2023-11-21T09:29:53;110.45;;;11.25;;
30020;SDS011;16861;52.294;7.760;2023-11-21T09:32:20;129.55;;;11.35;;
30020;SDS011;16861;52.294;7.760;2023-11-21T09:34:49;92.82;;;11.15;;
30020;SDS011;16861;52.294;7.760;2023-11-21T09:37:16;92.53;;;10.18;;
30020;SDS011;16861;52.294;7.760;2023-11-21T09:39:43;172.57;;;12.00;;
30020;SDS011;16861;52.294;7.760;2023-11-21T09:42:13;134.38;;;12.77;;
30020;SDS011;16861;52.294;7.760;2023-11-21T09:44:45;75.43;;;10.95;;
30020;SDS011;16861;52.294;7.760;2023-11-21T09:47:21;113.93;;;10.90;;
30020;SDS011;16861;52.294;7.760;2023-11-21T09:49:48;34.47;;;11.05;;
30020;SDS011;16861;52.294;7.760;2023-11-21T09:52:18;86.95;;;11.57;;
30020;SDS011;16861;52.294;7.760;2023-11-21T09:54:52;180.50;;;13.48;;
30020;SDS011;16861;52.294;7.760;2023-11-21T09:57:20;149.60;;;13.38;;
30020;SDS011;16861;52.294;7.760;2023-11-21T09:59:54;133.82;;;13.45;;
30020;SDS011;16861;52.294;7.760;2023-11-21T10:02:27;32.95;;;9.63;;
30020;SDS011;16861;52.294;7.760;2023-11-21T10:04:58;137.95;;;12.48;;
30020;SDS011;16861;52.294;7.760;2023-11-21T10:07:26;165.52;;;13.80;;
30020;SDS011;16861;52.294;7.760;2023-11-21T10:13:15;147.85;;;11.50;;
30020;SDS011;16861;52.294;7.760;2023-11-21T10:15:52;104.50;;;11.95;;
30020;SDS011;16861;52.294;7.760;2023-11-21T10:18:19;68.57;;;11.02;;
30020;SDS011;16861;52.294;7.760;2023-11-21T10:20:52;45.40;;;9.93;;
30020;SDS011;16861;52.294;7.760;2023-11-21T10:23:21;12.10;;;8.93;;
30020;SDS011;16861;52.294;7.760;2023-11-21T10:25:50;14.52;;;8.00;;
30020;SDS011;16861;52.294;7.760;2023-11-21T10:28:21;12.85;;;8.15;;
30020;SDS011;16861;52.294;7.760;2023-11-21T10:30:48;16.00;;;9.80;;
30020;SDS011;16861;52.294;7.760;2023-11-21T10:33:14;13.45;;;8.32;;
30020;SDS011;16861;52.294;7.760;2023-11-21T10:35:50;10.77;;;8.02;;
30020;SDS011;16861;52.294;7.760;2023-11-21T10:38:20;11.48;;;7.75;;
30020;SDS011;16861;52.294;7.760;2023-11-21T10:40:49;11.40;;;7.93;;
30020;SDS011;16861;52.294;7.760;2023-11-21T10:43:25;9.77;;;7.28;;
30020;SDS011;16861;52.294;7.760;2023-11-21T10:46:01;11.07;;;8.15;;
30020;SDS011;16861;52.294;7.760;2023-11-21T10:48:29;38.08;;;10.13;;
30020;SDS011;16861;52.294;7.760;2023-11-21T10:50:55;33.88;;;10.05;;
30020;SDS011;16861;52.294;7.760;2023-11-21T10:53:23;15.00;;;10.02;;
30020;SDS011;16861;52.294;7.760;2023-11-21T10:56:00;11.43;;;8.25;;
30020;SDS011;16861;52.294;7.760;2023-11-21T10:58:37;10.70;;;8.00;;
30020;SDS011;16861;52.294;7.760;2023-11-21T11:01:11;13.60;;;9.23;;
30020;SDS011;16861;52.294;7.760;2023-11-21T11:03:41;22.05;;;9.88;;
30020;SDS011;16861;52.294;7.760;2023-11-21T11:06:11;23.42;;;10.60;;
30020;SDS011;16861;52.294;7.760;2023-11-21T11:08:39;18.45;;;10.43;;
30020;SDS011;16861;52.294;7.760;2023-11-21T11:11:07;43.33;;;11.10;;
30020;SDS011;16861;52.294;7.760;2023-11-21T11:13:36;51.15;;;11.95;;
30020;SDS011;16861;52.294;7.760;2023-11-21T11:16:09;57.28;;;13.30;;
30020;SDS011;16861;52.294;7.760;2023-11-21T11:18:43;52.13;;;11.32;;
30020;SDS011;16861;52.294;7.760;2023-11-21T11:27:11;14.77;;;10.45;;
30020;SDS011;16861;52.294;7.760;2023-11-21T11:30:03;12.93;;;9.55;;
30020;SDS011;16861;52.294;7.760;2023-11-21T11:37:43;13.43;;;10.13;;
30020;SDS011;16861;52.294;7.760;2023-11-21T11:43:05;13.75;;;10.48;;
30020;SDS011;16861;52.294;7.760;2023-11-21T11:45:33;15.68;;;10.48;;
30020;SDS011;16861;52.294;7.760;2023-11-21T11:48:05;13.82;;;10.25;;
30020;SDS011;16861;52.294;7.760;2023-11-21T11:50:32;15.73;;;10.13;;
30020;SDS011;16861;52.294;7.760;2023-11-21T11:53:14;13.52;;;10.43;;
30020;SDS011;16861;52.294;7.760;2023-11-21T11:55:41;13.30;;;10.07;;
30020;SDS011;16861;52.294;7.760;2023-11-21T11:58:08;14.25;;;10.05;;
30020;SDS011;16861;52.294;7.760;2023-11-21T12:00:35;15.13;;;10.57;;
30020;SDS011;16861;52.294;7.760;2023-11-21T12:03:07;15.23;;;10.60;;
30020;SDS011;16861;52.294;7.760;2023-11-21T12:05:35;13.30;;;9.98;;
30020;SDS011;16861;52.294;7.760;2023-11-21T12:08:06;17.60;;;10.65;;
30020;SDS011;16861;52.294;7.760;2023-11-21T12:10:34;12.32;;;9.90;;
30020;SDS011;16861;52.294;7.760;2023-11-21T12:13:06;13.50;;;10.57;;
30020;SDS011;16861;52.294;7.760;2023-11-21T12:15:34;15.45;;;11.02;;
30020;SDS011;16861;52.294;7.760;2023-11-21T12:18:02;14.02;;;9.93;;
30020;SDS011;16861;52.294;7.760;2023-11-21T12:20:30;14.57;;;10.60;;
30020;SDS011;16861;52.294;7.760;2023-11-21T12:22:58;13.43;;;10.52;;
30020;SDS011;16861;52.294;7.760;2023-11-21T12:25:26;16.02;;;10.65;;
30020;SDS011;16861;52.294;7.760;2023-11-21T12:28:01;13.90;;;10.23;;
30020;SDS011;16861;52.294;7.760;2023-11-21T12:30:30;16.63;;;11.50;;
30020;SDS011;16861;52.294;7.760;2023-11-21T12:32:58;13.35;;;10.48;;
30020;SDS011;16861;52.294;7.760;2023-11-21T12:35:27;13.60;;;10.50;;
30020;SDS011;16861;52.294;7.760;2023-11-21T12:37:56;15.20;;;10.75;;
30020;SDS011;16861;52.294;7.760;2023-11-21T12:40:26;17.00;;;10.38;;
30020;SDS011;16861;52.294;7.760;2023-11-21T12:42:55;12.88;;;9.40;;
30020;SDS011;16861;52.294;7.760;2023-11-21T12:45:38;15.90;;;9.57;;
30020;SDS011;16861;52.294;7.760;2023-11-21T12:48:05;11.55;;;9.23;;
30020;SDS011;16861;52.294;7.760;2023-11-21T12:50:38;11.48;;;8.85;;
30020;SDS011;16861;52.294;7.760;2023-11-21T12:53:06;12.23;;;8.85;;
30020;SDS011;16861;52.294;7.760;2023-11-21T12:55:43;12.43;;;9.23;;
30020;SDS011;16861;52.294;7.760;2023-11-21T12:58:16;14.02;;;9.05;;
30020;SDS011;16861;52.294;7.760;2023-11-21T13:00:44;10.80;;;8.07;;
30020;SDS011;16861;52.294;7.760;2023-11-21T13:03:13;10.88;;;7.78;;
30020;SDS011;16861;52.294;7.760;2023-11-21T13:05:46;12.48;;;8.18;;
30020;SDS011;16861;52.294;7.760;2023-11-21T13:08:19;10.18;;;7.15;;
30020;SDS011;16861;52.294;7.760;2023-11-21T13:10:49;10.77;;;8.18;;
30020;SDS011;16861;52.294;7.760;2023-11-21T13:13:22;9.85;;;7.38;;
30020;SDS011;16861;52.294;7.760;2023-11-21T13:15:55;10.45;;;7.63;;
30020;SDS011;16861;52.294;7.760;2023-11-21T13:18:26;9.30;;;7.07;;
30020;SDS011;16861;52.294;7.760;2023-11-21T13:20:54;9.32;;;8.02;;
30020;SDS011;16861;52.294;7.760;2023-11-21T13:23:23;9.77;;;8.00;;
30020;SDS011;16861;52.294;7.760;2023-11-21T13:25:51;12.10;;;8.15;;
30020;SDS011;16861;52.294;7.760;2023-11-21T13:28:28;11.68;;;8.13;;
30020;SDS011;16861;52.294;7.760;2023-11-21T13:30:59;10.25;;;7.40;;
30020;SDS011;16861;52.294;7.760;2023-11-21T13:33:36;11.23;;;8.02;;
30020;SDS011;16861;52.294;7.760;2023-11-21T13:36:07;11.32;;;7.88;;
30020;SDS011;16861;52.294;7.760;2023-11-21T13:38:35;11.10;;;7.78;;
30020;SDS011;16861;52.294;7.760;2023-11-21T13:41:03;13.52;;;8.48;;
30020;SDS011;16861;52.294;7.760;2023-11-21T13:43:33;11.10;;;7.93;;
30020;SDS011;16861;52.294;7.760;2023-11-21T13:46:00;10.98;;;7.72;;
30020;SDS011;16861;52.294;7.760;2023-11-21T13:48:39;10.20;;;8.15;;
30020;SDS011;16861;52.294;7.760;2023-11-21T13:51:11;10.35;;;7.53;;
30020;SDS011;16861;52.294;7.760;2023-11-21T13:53:44;10.27;;;7.78;;
30020;SDS011;16861;52.294;7.760;2023-11-21T13:58:48;10.40;;;7.53;;
30020;SDS011;16861;52.294;7.760;2023-11-21T14:01:19;10.48;;;7.90;;
30020;SDS011;16861;52.294;7.760;2023-11-21T14:04:18;10.02;;;7.22;;
30020;SDS011;16861;52.294;7.760;2023-11-21T14:06:47;9.48;;;7.35;;
30020;SDS011;16861;52.294;7.760;2023-11-21T14:09:23;10.32;;;7.50;;
30020;SDS011;16861;52.294;7.760;2023-11-21T14:11:59;13.40;;;7.82;;
30020;SDS011;16861;52.294;7.760;2023-11-21T14:14:27;11.02;;;8.40;;
30020;SDS011;16861;52.294;7.760;2023-11-21T14:16:54;11.07;;;7.38;;
30020;SDS011;16861;52.294;7.760;2023-11-21T14:19:25;12.93;;;8.13;;
30020;SDS011;16861;52.294;7.760;2023-11-21T14:21:59;12.88;;;8.10;;
30020;SDS011;16861;52.294;7.760;2023-11-21T14:24:27;11.18;;;8.23;;
30020;SDS011;16861;52.294;7.760;2023-11-21T14:26:55;10.02;;;7.88;;
30020;SDS011;16861;52.294;7.760;2023-11-21T14:29:21;11.98;;;8.55;;
30020;SDS011;16861;52.294;7.760;2023-11-21T14:31:50;11.77;;;8.90;;
30020;SDS011;16861;52.294;7.760;2023-11-21T14:34:17;15.38;;;9.10;;
30020;SDS011;16861;52.294;7.760;2023-11-21T14:36:48;11.30;;;8.55;;
30020;SDS011;16861;52.294;7.760;2023-11-21T14:39:15;10.73;;;8.20;;
30020;SDS011;16861;52.294;7.760;2023-11-21T14:41:50;12.55;;;8.65;;
30020;SDS011;16861;52.294;7.760;2023-11-21T14:44:18;12.95;;;8.45;;
30020;SDS011;16861;52.294;7.760;2023-11-21T14:46:45;10.80;;;8.13;;
30020;SDS011;16861;52.294;7.760;2023-11-21T14:49:14;11.52;;;8.23;;
30020;SDS011;16861;52.294;7.760;2023-11-21T14:51:52;12.13;;;8.85;;
30020;SDS011;16861;52.294;7.760;2023-11-21T14:54:27;12.38;;;8.32;;